Latest Weather Observations for Colpoys Point

IDW60801

Issued at 4:13 am WST Wednesday 7 December 2022 (issued every 10 minutes, with the page automatically refreshed every 10 minutes)

About weather observations | Map of weather stations | Latest weather observations for WA | Other Formats
Station Details ID: 009255 Name: COLPOYS POINT Lat: -32.23 Lon: 115.70 Height: 3.0 m
Data from the previous 72 hours. | See also: Recent months for locations in Western Australia
Date/Time
WST
Temp
°C
App
Temp
°C
Dew
Point
°C
Rel
Hum
%
Delta-T
°C
Wind Press
QNH
hPa
Press
MSL
hPa
Rain since
9am
mm
Dir  Spd
km/h
Gust
km/h
Spd
kts
Gust
kts
07/04:00am - - - - - E 43 54 23 29 - - -
07/03:30am - - - - - ESE 41 52 22 28 - - -
07/03:00am - - - - - ESE 39 48 21 26 - - -
07/02:30am - - - - - ESE 37 48 20 26 - - -
07/02:00am - - - - - E 39 48 21 26 - - -
07/01:30am - - - - - ESE 35 41 19 22 - - -
07/01:00am - - - - - ESE 39 48 21 26 - - -
07/12:30am - - - - - ESE 35 43 19 23 - - -
07/12:00am - - - - - ESE 41 50 22 27 - - -
 
Date/Time
WST
Temp
°C
App
Temp
°C
Dew
Point
°C
Rel
Hum
%
Delta-T
°C
Wind Press
QNH
hPa
Press
MSL
hPa
Rain since
9am
mm
Dir  Spd
km/h
Gust
km/h
Spd
kts
Gust
kts
06/11:30pm - - - - - ESE 37 48 20 26 - - -
06/11:00pm - - - - - ESE 32 37 17 20 - - -
06/10:30pm - - - - - SE 39 50 21 27 - - -
06/10:00pm - - - - - SE 30 35 16 19 - - -
06/09:30pm - - - - - SSE 26 33 14 18 - - -
06/09:00pm - - - - - S 24 28 13 15 - - -
06/08:30pm - - - - - S 32 37 17 20 - - -
06/08:00pm - - - - - SSW 35 44 19 24 - - -
06/07:30pm - - - - - SSW 37 48 20 26 - - -
06/07:00pm - - - - - SSW 41 52 22 28 - - -
06/06:30pm - - - - - SSW 39 54 21 29 - - -
06/06:00pm - - - - - SSW 43 56 23 30 - - -
06/05:30pm - - - - - SSW 43 52 23 28 - - -
06/05:00pm - - - - - SSW 44 57 24 31 - - -
06/04:30pm - - - - - SSW 46 57 25 31 - - -
06/04:00pm - - - - - SSW 46 56 25 30 - - -
06/03:30pm - - - - - SSW 43 56 23 30 - - -
06/03:00pm - - - - - SSW 43 57 23 31 - - -
06/02:30pm - - - - - SSW 43 54 23 29 - - -
06/02:00pm - - - - - SSW 44 56 24 30 - - -
06/01:30pm - - - - - SW 37 48 20 26 - - -
06/01:00pm - - - - - SSW 39 54 21 29 - - -
06/12:30pm - - - - - SW 37 48 20 26 - - -
06/12:00pm - - - - - SSW 30 37 16 20 - - -
06/11:30am - - - - - SSW 30 37 16 20 - - -
06/11:00am - - - - - SSW 24 32 13 17 - - -
06/10:30am - - - - - SSE 24 30 13 16 - - -
06/10:00am - - - - - SSE 22 32 12 17 - - -
06/09:30am - - - - - SSE 24 33 13 18 - - -
06/09:00am - - - - - SSE 30 35 16 19 - - -
06/08:30am - - - - - S 26 33 14 18 - - -
06/08:00am - - - - - SSE 30 35 16 19 - - -
06/07:30am - - - - - SSE 30 37 16 20 - - -
06/07:00am - - - - - SSE 24 32 13 17 - - -
06/06:30am - - - - - SSE 28 35 15 19 - - -
06/06:00am - - - - - SSE 28 35 15 19 - - -
06/05:30am - - - - - SSE 28 33 15 18 - - -
06/05:00am - - - - - SSE 26 30 14 16 - - -
06/04:30am - - - - - SSE 22 26 12 14 - - -
06/04:00am - - - - - SSE 24 28 13 15 - - -
06/03:30am - - - - - SSE 28 32 15 17 - - -
06/03:00am - - - - - SSE 24 26 13 14 - - -
06/02:30am - - - - - S 26 30 14 16 - - -
06/02:00am - - - - - S 24 30 13 16 - - -
06/01:30am - - - - - SSE 20 24 11 13 - - -
06/01:00am - - - - - SSE 24 28 13 15 - - -
06/12:30am - - - - - S 26 32 14 17 - - -
06/12:00am - - - - - SSE 22 26 12 14 - - -
 
Date/Time
WST
Temp
°C
App
Temp
°C
Dew
Point
°C
Rel
Hum
%
Delta-T
°C
Wind Press
QNH
hPa
Press
MSL
hPa
Rain since
9am
mm
Dir  Spd
km/h
Gust
km/h
Spd
kts
Gust
kts
05/11:30pm - - - - - SSE 22 26 12 14 - - -
05/11:00pm - - - - - SSE 24 28 13 15 - - -
05/10:30pm - - - - - SSE 26 32 14 17 - - -
05/10:00pm - - - - - SSE 30 35 16 19 - - -
05/09:30pm - - - - - SSE 30 35 16 19 - - -
05/09:00pm - - - - - S 30 33 16 18 - - -
05/08:30pm - - - - - S 24 32 13 17 - - -
05/08:00pm - - - - - SSW 30 35 16 19 - - -
05/07:30pm - - - - - SSW 30 37 16 20 - - -
05/07:00pm - - - - - SSW 32 41 17 22 - - -
05/06:30pm - - - - - SSW 35 43 19 23 - - -
05/06:00pm - - - - - SSW 39 50 21 27 - - -
05/05:30pm - - - - - SSW 39 50 21 27 - - -
05/05:00pm - - - - - SSW 37 52 20 28 - - -
05/04:30pm - - - - - SSW 41 52 22 28 - - -
05/04:00pm - - - - - SW 43 56 23 30 - - -
05/03:30pm - - - - - SW 37 50 20 27 - - -
05/03:00pm - - - - - SW 37 50 20 27 - - -
05/02:30pm - - - - - SW 35 48 19 26 - - -
05/02:00pm - - - - - SW 35 46 19 25 - - -
05/01:30pm - - - - - SW 33 41 18 22 - - -
05/01:00pm - - - - - SW 32 37 17 20 - - -
05/12:30pm - - - - - SSW 30 37 16 20 - - -
05/12:00pm - - - - - SSW 26 33 14 18 - - -
05/11:30am - - - - - SSE 19 24 10 13 - - -
05/11:00am - - - - - SSE 19 26 10 14 - - -
05/10:30am - - - - - SSE 17 22 9 12 - - -
05/10:00am - - - - - SE 15 19 8 10 - - -
05/09:30am - - - - - SE 15 20 8 11 - - -
05/09:00am - - - - - SE 17 24 9 13 - - -
05/08:30am - - - - - SE 19 26 10 14 - - -
05/08:00am - - - - - SE 19 26 10 14 - - -
05/07:30am - - - - - ESE 22 32 12 17 - - -
05/07:00am - - - - - SE 17 24 9 13 - - -
05/06:30am - - - - - SE 15 19 8 10 - - -
05/06:00am - - - - - SSE 17 19 9 10 - - -
05/05:30am - - - - - SE 17 22 9 12 - - -
05/05:00am - - - - - SE 19 28 10 15 - - -
05/04:30am - - - - - SE 20 28 11 15 - - -
05/04:00am - - - - - SE 20 26 11 14 - - -
05/03:30am - - - - - SSE 19 22 10 12 - - -
05/03:00am - - - - - SE 19 26 10 14 - - -
05/02:30am - - - - - SE 20 26 11 14 - - -
05/02:00am - - - - - SE 22 28 12 15 - - -
05/01:30am - - - - - SE 20 28 11 15 - - -
05/01:00am - - - - - ESE 26 32 14 17 - - -
05/12:30am - - - - - ESE 26 30 14 16 - - -
05/12:00am - - - - - SE 22 30 12 16 - - -
 
Date/Time
WST
Temp
°C
App
Temp
°C
Dew
Point
°C
Rel
Hum
%
Delta-T
°C
Wind Press
QNH
hPa
Press
MSL
hPa
Rain since
9am
mm
Dir  Spd
km/h
Gust
km/h
Spd
kts
Gust
kts
04/11:30pm - - - - - SE 24 32 13 17 - - -
04/11:00pm - - - - - SE 24 33 13 18 - - -
04/10:30pm - - - - - SE 26 30 14 16 - - -
04/10:00pm - - - - - SE 28 32 15 17 - - -
04/09:30pm - - - - - SE 30 37 16 20 - - -
04/09:00pm - - - - - SE 33 44 18 24 - - -
04/08:30pm - - - - - SE 32 39 17 21 - - -
04/08:00pm - - - - - SE 33 41 18 22 - - -
04/07:30pm - - - - - SSE 33 39 18 21 - - -
04/07:00pm - - - - - SE 35 43 19 23 - - -
04/06:30pm - - - - - SSE 39 48 21 26 - - -
04/06:00pm - - - - - SSE 37 46 20 25 - - -
04/05:30pm - - - - - SSE 35 41 19 22 - - -
04/05:00pm - - - - - SSE 32 37 17 20 - - -
04/04:30pm - - - - - SSE 24 32 13 17 - - -
04/04:00pm - - - - - SE 22 32 12 17 - - -
04/03:30pm - - - - - SSE 20 30 11 16 - - -
04/03:00pm - - - - - SSE 13 19 7 10 - - -
04/02:30pm - - - - - S 20 28 11 15 - - -
04/02:00pm - - - - - SSE 17 24 9 13 - - -
04/01:30pm - - - - - SSE 22 28 12 15 - - -
04/01:00pm - - - - - SSE 28 33 15 18 - - -
04/12:30pm - - - - - SE 24 32 13 17 - - -
04/12:00pm - - - - - SE 24 35 13 19 - - -
04/11:30am - - - - - SE 26 33 14 18 - - -
04/11:00am - - - - - SE 32 41 17 22 - - -
04/10:30am - - - - - SE 28 37 15 20 - - -
04/10:00am - - - - - ESE 24 28 13 15 - - -
04/09:30am - - - - - SE 20 26 11 14 - - -
04/09:00am - - - - - ESE 26 30 14 16 - - -
04/08:30am - - - - - SE 30 37 16 20 - - -
04/08:00am - - - - - ESE 30 37 16 20 - - -
04/07:30am - - - - - SE 30 37 16 20 - - -
04/07:00am - - - - - ESE 20 28 11 15 - - -
04/06:30am - - - - - SE 22 30 12 16 - - -
04/06:00am - - - - - SE 19 24 10 13 - - -
04/05:30am - - - - - SE 24 28 13 15 - - -
04/05:00am - - - - - SSE 22 28 12 15 - - -
04/04:30am - - - - - SSE 20 26 11 14 - - -

Other formats

Comma delimited format used in spreadsheet applications
http://www.bom.gov.au/fwo/IDW60801/IDW60801.99255.axf

JavaScript Object Notation format (JSON) in row-major order
http://www.bom.gov.au/fwo/IDW60801/IDW60801.99255.json

Data quality

Most of these data are generated automatically and are frequently updated. Quality checks on data are not normally performed. It is possible for incorrect values to appear. Refer to information at About Latest Weather Observations and please check the disclaimer before using these data.